createdAt,value
2019-02-04T00:01:25.325Z,37.73
2019-02-04T00:04:14.498Z,37.40
2019-02-04T00:06:59.288Z,38.63
2019-02-04T00:09:51.755Z,37.43
2019-02-04T00:12:25.599Z,36.10
2019-02-04T00:15:00.963Z,35.77
2019-02-04T00:17:51.503Z,35.37
2019-02-04T00:20:37.231Z,36.47
2019-02-04T00:23:05.885Z,36.33
2019-02-04T00:25:35.085Z,35.50
2019-02-04T00:28:28.276Z,35.50
2019-02-04T00:31:05.031Z,35.27
2019-02-04T00:33:48.419Z,34.33
2019-02-04T00:36:35.909Z,33.20
2019-02-04T00:39:06.151Z,34.17
2019-02-04T00:41:39.299Z,33.67
2019-02-04T00:44:17.596Z,33.50
2019-02-04T00:46:52.262Z,28.47
2019-02-04T00:49:28.150Z,31.83
2019-02-04T00:52:31.293Z,32.43
2019-02-04T00:55:04.030Z,32.43
2019-02-04T00:57:37.246Z,32.33
2019-02-04T01:00:07.759Z,31.33
2019-02-04T01:02:43.807Z,31.03
2019-02-04T01:05:12.379Z,31.50
2019-02-04T01:10:20.750Z,29.85
2019-02-04T01:12:48.859Z,29.73
2019-02-04T01:15:23.769Z,29.93
2019-02-04T01:22:57.194Z,27.23
2019-02-04T01:25:52.014Z,28.17
2019-02-04T01:28:30.202Z,24.17
2019-02-04T01:30:58.028Z,24.07
2019-02-04T01:33:27.798Z,24.97
2019-02-04T01:35:55.845Z,25.17
2019-02-04T01:38:27.648Z,23.83
2019-02-04T01:40:59.978Z,20.83
2019-02-04T01:43:28.544Z,23.57
2019-02-04T01:46:04.264Z,21.97
2019-02-04T01:48:33.440Z,18.03
2019-02-04T01:51:03.374Z,18.20
2019-02-04T01:53:41.410Z,19.83
2019-02-04T01:56:09.542Z,17.67
2019-02-04T01:58:39.130Z,17.97
2019-02-04T02:01:07.528Z,18.10
2019-02-04T02:03:40.698Z,17.67
2019-02-04T02:06:45.579Z,18.53
2019-02-04T02:09:22.736Z,16.83
2019-02-04T02:11:51.146Z,15.57
2019-02-04T02:14:20.977Z,15.70
2019-02-04T02:16:49.204Z,16.47
2019-02-04T02:19:39.996Z,15.00
2019-02-04T02:22:14.912Z,14.93
2019-02-04T02:24:56.558Z,13.83
2019-02-04T02:27:28.261Z,12.63
2019-02-04T02:30:00.372Z,12.37
2019-02-04T02:32:28.942Z,12.20
2019-02-04T02:35:01.397Z,11.87
2019-02-04T02:37:34.048Z,11.07
2019-02-04T02:40:07.414Z,10.97
2019-02-04T02:42:45.125Z,10.87
2019-02-04T02:45:13.508Z,10.73
2019-02-04T02:47:43.871Z,10.20
2019-02-04T02:50:20.691Z,9.93
2019-02-04T02:52:49.084Z,11.23
2019-02-04T02:55:17.799Z,10.67
2019-02-04T02:57:46.554Z,9.37
2019-02-04T03:00:17.214Z,9.77
2019-02-04T03:02:45.469Z,9.60
2019-02-04T03:05:15.688Z,8.87
2019-02-04T03:07:45.218Z,9.00
2019-02-04T03:10:19.667Z,9.23
2019-02-04T03:12:51.741Z,8.50
2019-02-04T03:15:21.378Z,7.73
2019-02-04T03:17:52.828Z,8.93
2019-02-04T03:20:21.354Z,8.50
2019-02-04T03:22:50.084Z,8.13
2019-02-04T03:25:18.346Z,7.40
2019-02-04T03:27:46.838Z,7.30
2019-02-04T03:30:29.146Z,7.57
2019-02-04T03:32:57.128Z,7.63
2019-02-04T03:35:25.154Z,8.20
2019-02-04T03:37:55.768Z,8.17
2019-02-04T03:40:25.812Z,8.67
2019-02-04T03:42:53.869Z,8.80
2019-02-04T03:45:21.802Z,8.73
2019-02-04T03:48:03.796Z,8.13
2019-02-04T03:50:21.579Z,8.07
2019-02-04T03:52:50.417Z,7.77
2019-02-04T03:55:18.594Z,7.50
2019-02-04T03:57:46.894Z,7.83
2019-02-04T04:00:17.947Z,7.40
2019-02-04T04:02:46.319Z,7.10
2019-02-04T04:05:15.232Z,6.97
2019-02-04T04:16:34.209Z,6.10
2019-02-04T04:19:05.230Z,6.50
2019-02-04T04:24:09.764Z,5.60
2019-02-04T04:26:38.372Z,5.83
2019-02-04T04:29:22.562Z,5.20
2019-02-04T04:31:50.836Z,4.90
2019-02-04T04:34:21.312Z,5.40
2019-02-04T04:37:19.406Z,4.83
2019-02-04T04:39:49.096Z,5.13
2019-02-04T04:42:23.208Z,4.43
2019-02-04T04:44:54.776Z,4.67
2019-02-04T04:47:25.849Z,4.90
2019-02-04T04:50:02.340Z,4.73
2019-02-04T04:52:32.112Z,4.63
2019-02-04T04:55:02.844Z,4.30
2019-02-04T04:57:33.780Z,5.07
2019-02-04T05:00:02.977Z,4.70
2019-02-04T05:02:36.961Z,4.63
2019-02-04T05:05:11.832Z,4.30
2019-02-04T05:07:47.230Z,4.80
2019-02-04T05:10:35.634Z,4.60
2019-02-04T05:13:17.344Z,4.17
2019-02-04T05:15:47.613Z,3.93
2019-02-04T05:18:20.530Z,4.10
2019-02-04T05:20:52.129Z,3.37
2019-02-04T05:23:22.806Z,3.40
2019-02-04T05:25:53.772Z,2.73
2019-02-04T05:28:30.431Z,3.50
2019-02-04T05:33:53.713Z,3.50
2019-02-04T05:36:27.516Z,3.23
2019-02-04T05:38:58.194Z,3.60
2019-02-04T05:41:28.305Z,4.00
2019-02-04T05:44:03.990Z,3.63
2019-02-04T05:46:34.489Z,3.53
2019-02-04T05:49:02.387Z,3.77
2019-02-04T05:51:30.484Z,3.87
2019-02-04T05:53:58.124Z,3.80
2019-02-04T05:56:26.269Z,4.00
2019-02-04T05:58:54.074Z,3.53
2019-02-04T06:01:22.053Z,4.13
2019-02-04T06:03:49.716Z,4.00
2019-02-04T06:06:17.590Z,4.00
2019-02-04T06:08:45.253Z,3.80
2019-02-04T06:11:13.189Z,4.17
2019-02-04T06:13:41.268Z,3.60
2019-02-04T06:16:09.187Z,3.63
2019-02-04T06:18:36.825Z,3.80
2019-02-04T06:21:04.704Z,3.60
2019-02-04T06:23:32.457Z,3.80
2019-02-04T06:26:05.015Z,4.17
2019-02-04T06:28:32.730Z,3.93
2019-02-04T06:31:00.900Z,3.80
2019-02-04T06:33:28.960Z,3.93
2019-02-04T06:35:58.380Z,4.77
2019-02-04T06:38:26.312Z,4.33
2019-02-04T06:40:54.284Z,4.70
2019-02-04T06:43:25.046Z,4.60
2019-02-04T06:45:52.979Z,4.80
2019-02-04T06:48:20.749Z,4.97
2019-02-04T06:50:50.898Z,6.17
2019-02-04T06:53:19.867Z,5.60
2019-02-04T06:55:47.590Z,5.67
2019-02-04T06:58:15.386Z,5.10
2019-02-04T07:00:43.262Z,6.30
2019-02-04T07:03:10.885Z,5.90
2019-02-04T07:05:43.750Z,5.73
2019-02-04T07:08:10.434Z,5.10
2019-02-04T07:10:38.205Z,5.80
2019-02-04T07:13:06.686Z,5.53
2019-02-04T07:15:34.539Z,6.10
2019-02-04T07:18:02.608Z,5.50
2019-02-04T07:20:30.477Z,6.20
2019-02-04T07:22:58.229Z,6.40
2019-02-04T07:25:26.076Z,6.60
2019-02-04T07:27:53.923Z,5.87
2019-02-04T07:30:25.453Z,7.17
2019-02-04T07:32:53.467Z,7.40
2019-02-04T07:35:28.944Z,6.50
2019-02-04T07:37:56.947Z,7.50
2019-02-04T07:40:28.248Z,7.37
2019-02-04T07:42:56.058Z,6.70
2019-02-04T07:45:24.000Z,7.73
2019-02-04T07:47:52.080Z,7.90
2019-02-04T07:50:26.339Z,7.57
2019-02-04T07:52:58.680Z,8.77
2019-02-04T07:55:27.093Z,9.27
2019-02-04T07:57:57.187Z,9.07
2019-02-04T08:00:27.762Z,9.27
2019-02-04T08:02:55.648Z,8.73
2019-02-04T08:05:23.629Z,9.60
2019-02-04T08:07:51.673Z,9.87
2019-02-04T08:10:19.756Z,10.17
2019-02-04T08:12:47.831Z,10.70
2019-02-04T08:15:18.151Z,10.47
2019-02-04T08:17:46.018Z,11.60
2019-02-04T08:20:14.000Z,11.07
2019-02-04T08:22:42.056Z,11.80
2019-02-04T08:25:10.739Z,12.23
2019-02-04T08:27:38.446Z,12.80
2019-02-04T08:30:09.084Z,12.60
2019-02-04T08:32:36.892Z,13.50
2019-02-04T08:35:06.418Z,12.47
2019-02-04T08:37:34.099Z,13.57
2019-02-04T08:40:02.426Z,13.57
2019-02-04T08:42:30.226Z,14.40
2019-02-04T08:44:58.216Z,13.80
2019-02-04T08:47:26.250Z,14.27
2019-02-04T08:49:58.469Z,14.27
2019-02-04T08:52:23.599Z,14.80
2019-02-04T08:54:51.483Z,15.07
2019-02-04T08:57:21.500Z,15.67
2019-02-04T08:59:49.182Z,16.43
2019-02-04T09:02:16.987Z,15.13
2019-02-04T09:04:45.067Z,16.20
2019-02-04T09:07:12.734Z,16.47
2019-02-04T09:09:40.430Z,16.97
2019-02-04T09:12:08.174Z,16.50
2019-02-04T09:14:35.931Z,16.80
2019-02-04T09:17:04.296Z,16.63
2019-02-04T09:19:32.048Z,17.23
2019-02-04T09:21:59.879Z,17.27
2019-02-04T09:24:27.639Z,17.87
2019-02-04T09:26:55.365Z,17.73
2019-02-04T09:29:23.038Z,17.80
2019-02-04T09:31:50.708Z,18.53
2019-02-04T09:34:18.474Z,17.30
2019-02-04T09:36:46.122Z,17.20
2019-02-04T09:39:13.899Z,17.50
2019-02-04T09:41:41.765Z,17.20
2019-02-04T09:44:09.490Z,18.23
2019-02-04T09:46:37.287Z,18.27
2019-02-04T09:49:04.883Z,17.97
2019-02-04T09:51:32.576Z,17.43
2019-02-04T09:54:00.220Z,18.53
2019-02-04T09:56:27.927Z,18.50
2019-02-04T09:58:55.773Z,18.67
2019-02-04T10:01:23.362Z,18.27
2019-02-04T10:03:50.993Z,17.60
2019-02-04T10:06:18.620Z,18.53
2019-02-04T10:08:46.248Z,18.13
2019-02-04T10:11:14.093Z,18.67
2019-02-04T10:13:41.728Z,19.13
2019-02-04T10:16:11.606Z,17.10
2019-02-04T10:18:38.954Z,17.53
2019-02-04T10:21:06.714Z,17.53
2019-02-04T10:23:34.313Z,17.83
2019-02-04T10:26:01.962Z,17.83
2019-02-04T10:28:29.754Z,17.97
2019-02-04T10:30:57.600Z,17.27
2019-02-04T10:33:25.385Z,16.80
2019-02-04T10:35:53.034Z,17.77
2019-02-04T10:38:20.696Z,16.90
2019-02-04T10:40:48.393Z,17.53
2019-02-04T10:43:16.108Z,17.50
2019-02-04T10:45:43.809Z,17.23
2019-02-04T10:48:11.488Z,19.27
2019-02-04T10:50:46.188Z,18.53
2019-02-04T10:53:09.793Z,18.70
2019-02-04T10:55:37.450Z,18.60
2019-02-04T10:58:05.792Z,18.53
2019-02-04T11:00:33.775Z,19.43
2019-02-04T11:03:01.693Z,18.07
2019-02-04T11:05:30.953Z,19.33
2019-02-04T11:07:58.638Z,19.03
2019-02-04T11:10:31.843Z,20.20
2019-02-04T11:12:59.434Z,18.30
2019-02-04T11:15:27.016Z,19.17
2019-02-04T11:17:55.080Z,19.87
2019-02-04T11:20:24.999Z,18.93
2019-02-04T11:22:52.687Z,18.47
2019-02-04T11:25:20.262Z,18.67
2019-02-04T11:27:47.891Z,17.77
2019-02-04T11:30:36.251Z,18.30
2019-02-04T11:33:03.832Z,17.03
2019-02-04T11:35:31.467Z,18.30
2019-02-04T11:37:59.106Z,18.30
2019-02-04T11:40:31.512Z,18.87
2019-02-04T11:42:59.034Z,18.37
2019-02-04T11:45:27.211Z,19.13
2019-02-04T11:47:54.916Z,19.43
2019-02-04T11:50:22.534Z,17.97
2019-02-04T11:52:50.156Z,18.00
2019-02-04T11:55:17.822Z,17.97
2019-02-04T11:57:45.450Z,18.70
2019-02-04T12:00:18.319Z,19.10
2019-02-04T12:02:45.963Z,18.17
2019-02-04T12:05:15.064Z,18.73
2019-02-04T12:07:42.700Z,18.97
2019-02-04T12:10:13.765Z,19.43
2019-02-04T12:12:41.389Z,19.57
2019-02-04T12:15:11.086Z,19.00
2019-02-04T12:17:38.903Z,20.13
2019-02-04T12:20:07.883Z,20.77
2019-02-04T12:22:35.553Z,18.80
2019-02-04T12:25:03.442Z,20.67
2019-02-04T12:27:32.378Z,19.83
2019-02-04T12:30:00.234Z,20.20
2019-02-04T12:32:28.221Z,20.33
2019-02-04T12:34:56.272Z,19.73
2019-02-04T12:37:23.938Z,19.30
2019-02-04T12:39:51.541Z,20.63
2019-02-04T12:42:19.210Z,19.80
2019-02-04T12:44:46.904Z,19.33
2019-02-04T12:47:14.538Z,18.60
2019-02-04T12:49:42.465Z,20.70
2019-02-04T12:52:10.409Z,19.97
2019-02-04T12:54:38.073Z,19.73
2019-02-04T12:57:05.793Z,20.00
2019-02-04T12:59:33.527Z,20.47
2019-02-04T13:02:01.290Z,19.43
2019-02-04T13:04:28.930Z,21.27
2019-02-04T13:06:57.026Z,20.37
2019-02-04T13:09:24.801Z,18.60
2019-02-04T13:11:52.509Z,20.10
2019-02-04T13:14:20.255Z,18.90
2019-02-04T13:16:48.056Z,20.07
2019-02-04T13:19:15.860Z,20.27
2019-02-04T13:21:45.596Z,19.13
2019-02-04T13:24:13.196Z,21.00
2019-02-04T13:26:41.038Z,19.73
2019-02-04T13:29:08.684Z,19.10
2019-02-04T13:31:36.457Z,18.97
2019-02-04T13:34:04.613Z,19.07
2019-02-04T13:36:32.280Z,20.07
2019-02-04T13:39:00.088Z,19.33
2019-02-04T13:41:27.833Z,19.57
2019-02-04T13:43:55.563Z,19.13
2019-02-04T13:46:23.245Z,18.63
2019-02-04T13:48:51.033Z,18.80
2019-02-04T13:51:18.787Z,19.27
2019-02-04T13:53:46.498Z,19.07
2019-02-04T13:56:14.841Z,18.47
2019-02-04T13:58:42.644Z,19.10
2019-02-04T14:01:10.645Z,18.40
2019-02-04T14:03:38.314Z,19.87
2019-02-04T14:06:06.384Z,19.23
2019-02-04T14:08:34.455Z,17.60
2019-02-04T14:11:02.226Z,18.47
2019-02-04T14:13:30.022Z,19.20
2019-02-04T14:15:57.712Z,18.13
2019-02-04T14:18:26.664Z,18.83
2019-02-04T14:20:54.439Z,19.03
2019-02-04T14:23:22.904Z,18.53
2019-02-04T14:25:50.548Z,17.63
2019-02-04T14:28:18.293Z,18.33
2019-02-04T14:30:46.044Z,18.80
2019-02-04T14:33:14.097Z,19.17
2019-02-04T14:35:41.897Z,19.00
2019-02-04T14:38:09.607Z,19.23
2019-02-04T14:40:37.652Z,20.03
2019-02-04T14:43:13.114Z,18.33
2019-02-04T14:46:05.911Z,19.33
2019-02-04T14:49:27.499Z,20.03
2019-02-04T14:52:21.498Z,19.70
2019-02-04T14:55:36.257Z,19.57
2019-02-04T14:58:33.170Z,19.30
2019-02-04T15:01:53.126Z,20.10
2019-02-04T15:04:38.502Z,20.63
2019-02-04T15:07:44.374Z,19.03
2019-02-04T15:10:43.391Z,21.43
2019-02-04T15:13:31.019Z,20.13
2019-02-04T15:16:45.840Z,20.47
2019-02-04T15:23:01.098Z,20.97
2019-02-04T15:26:20.594Z,21.57
2019-02-04T15:29:46.789Z,20.40
2019-02-04T15:32:40.036Z,19.57
2019-02-04T15:39:03.533Z,19.90
2019-02-04T15:42:07.552Z,19.87
2019-02-04T15:45:30.020Z,20.43
2019-02-04T15:48:36.138Z,19.87
2019-02-04T15:51:34.644Z,20.63
2019-02-04T15:54:22.088Z,20.63
2019-02-04T15:57:01.810Z,20.40
2019-02-04T16:00:32.857Z,20.03
2019-02-04T16:03:15.334Z,20.27
2019-02-04T16:06:03.800Z,19.63
2019-02-04T16:08:39.334Z,19.67
2019-02-04T16:11:11.121Z,19.20
2019-02-04T16:13:46.512Z,18.87
2019-02-04T16:16:34.882Z,19.40
2019-02-04T16:19:54.969Z,20.97
2019-02-04T16:23:25.270Z,19.37
2019-02-04T16:26:26.153Z,20.53
2019-02-04T16:36:41.477Z,20.97
2019-02-04T16:58:11.491Z,21.47
2019-02-04T17:04:33.190Z,20.07
2019-02-04T17:11:04.261Z,20.53
2019-02-04T17:18:03.078Z,21.93
2019-02-04T17:21:21.940Z,21.13
2019-02-04T17:27:44.432Z,20.00
2019-02-04T17:46:02.380Z,18.93
2019-02-04T17:59:51.000Z,17.77
2019-02-04T18:13:50.157Z,19.47
2019-02-04T18:20:22.614Z,19.30
2019-02-04T18:24:10.877Z,20.50
2019-02-04T18:31:05.961Z,19.07
2019-02-04T18:37:45.644Z,18.10
2019-02-04T18:41:15.150Z,18.47
2019-02-04T18:55:25.175Z,19.60
2019-02-04T18:59:08.005Z,19.83
2019-02-04T19:06:24.821Z,18.33
2019-02-04T19:33:17.646Z,19.97
2019-02-04T20:23:12.125Z,22.37
2019-02-04T20:28:29.987Z,22.57
2019-02-04T20:56:27.918Z,20.50
2019-02-04T21:10:45.071Z,20.63
2019-02-04T21:13:40.113Z,20.33
2019-02-04T21:16:51.712Z,18.90
2019-02-04T21:19:28.053Z,20.37
2019-02-04T21:29:35.515Z,19.57
2019-02-04T21:36:31.849Z,20.27
2019-02-04T21:39:14.590Z,19.10
2019-02-04T21:46:50.615Z,20.77
2019-02-04T22:06:42.867Z,21.00
2019-02-04T22:18:25.819Z,23.47
2019-02-04T22:20:57.511Z,23.60
2019-02-04T22:24:04.446Z,21.87
2019-02-04T22:26:50.681Z,23.13
2019-02-04T22:33:04.187Z,24.27
2019-02-04T22:36:18.279Z,25.33
2019-02-04T22:42:35.057Z,23.77
2019-02-04T22:44:39.401Z,24.53
2019-02-04T22:50:38.119Z,23.83
2019-02-04T22:53:06.510Z,24.40
2019-02-04T22:55:49.444Z,22.50
2019-02-04T22:58:30.256Z,21.90
2019-02-04T23:04:14.388Z,22.30
2019-02-04T23:07:01.497Z,21.83
2019-02-04T23:09:42.418Z,22.67
2019-02-04T23:12:15.169Z,23.43
2019-02-04T23:15:14.745Z,23.50
2019-02-04T23:22:08.451Z,23.70
2019-02-04T23:25:10.849Z,23.33
2019-02-04T23:33:49.584Z,25.30
2019-02-04T23:36:59.081Z,24.23
2019-02-04T23:39:41.219Z,23.93
2019-02-04T23:42:49.661Z,24.07
2019-02-04T23:46:26.851Z,24.80
2019-02-04T23:49:42.133Z,23.20
2019-02-04T23:52:45.109Z,24.17
2019-02-04T23:55:26.920Z,24.70
2019-02-04T23:58:49.105Z,25.13
